createdAt,value
2024-01-16T00:01:10.181Z,46.19
2024-01-16T00:03:39.730Z,46.33
2024-01-16T00:06:08.157Z,46.36
2024-01-16T00:08:35.393Z,46.45
2024-01-16T00:11:04.421Z,46.33
2024-01-16T00:13:33.222Z,46.29
2024-01-16T00:16:02.538Z,46.60
2024-01-16T00:18:29.954Z,46.35
2024-01-16T00:20:57.707Z,46.64
2024-01-16T00:23:24.855Z,46.60
2024-01-16T00:25:52.041Z,46.63
2024-01-16T00:28:20.917Z,46.48
2024-01-16T00:30:48.632Z,46.39
2024-01-16T00:33:15.845Z,46.53
2024-01-16T00:35:43.293Z,46.52
2024-01-16T00:38:10.523Z,46.48
2024-01-16T00:40:37.730Z,46.63
2024-01-16T00:43:05.297Z,46.33
2024-01-16T00:45:32.570Z,46.48
2024-01-16T00:48:00.442Z,46.37
2024-01-16T00:50:27.991Z,46.40
2024-01-16T00:52:55.257Z,46.46
2024-01-16T00:55:22.407Z,46.25
2024-01-16T00:57:49.835Z,46.48
2024-01-16T01:00:17.290Z,46.46
2024-01-16T01:02:45.312Z,46.53
2024-01-16T01:05:12.662Z,46.72
2024-01-16T01:07:39.853Z,46.49
2024-01-16T01:10:07.376Z,46.38
2024-01-16T01:12:36.231Z,46.29
2024-01-16T01:15:03.655Z,46.30
2024-01-16T01:17:30.964Z,46.42
2024-01-16T01:19:58.961Z,46.75
2024-01-16T01:22:26.714Z,46.54
2024-01-16T01:24:54.252Z,46.67
2024-01-16T01:27:22.128Z,46.43
2024-01-16T01:29:49.367Z,46.46
2024-01-16T01:32:16.987Z,46.33
2024-01-16T01:34:44.202Z,46.26
2024-01-16T01:37:11.391Z,46.65
2024-01-16T01:39:38.564Z,46.33
2024-01-16T01:42:06.732Z,46.55
2024-01-16T01:44:33.994Z,46.44
2024-01-16T01:47:01.974Z,46.23
2024-01-16T01:49:29.522Z,46.45
2024-01-16T01:51:57.569Z,46.37
2024-01-16T01:54:26.456Z,46.34
2024-01-16T01:56:54.260Z,46.52
2024-01-16T01:59:23.100Z,46.37
2024-01-16T02:01:54.016Z,46.30
2024-01-16T02:04:22.762Z,46.36
2024-01-16T02:06:50.458Z,46.33
2024-01-16T02:09:18.001Z,46.22
2024-01-16T02:11:46.045Z,46.29
2024-01-16T02:14:13.333Z,46.35
2024-01-16T02:16:42.990Z,46.56
2024-01-16T02:19:10.441Z,46.52
2024-01-16T02:21:50.319Z,46.48
2024-01-16T02:24:20.701Z,46.33
2024-01-16T02:26:48.386Z,46.38
2024-01-16T02:29:17.679Z,46.56
2024-01-16T02:31:45.191Z,46.28
2024-01-16T02:34:12.620Z,46.35
2024-01-16T02:36:40.206Z,46.36
2024-01-16T02:39:07.770Z,46.26
2024-01-16T02:41:34.961Z,46.27
2024-01-16T02:44:02.375Z,46.11
2024-01-16T02:46:29.818Z,46.24
2024-01-16T02:48:57.163Z,45.93
2024-01-16T02:51:24.819Z,46.19
2024-01-16T02:53:52.004Z,46.08
2024-01-16T02:56:19.244Z,46.29
2024-01-16T02:58:46.806Z,45.95
2024-01-16T03:01:16.852Z,46.02
2024-01-16T03:03:44.627Z,46.18
2024-01-16T03:06:22.372Z,46.14
2024-01-16T03:08:49.758Z,45.98
2024-01-16T03:11:17.491Z,46.07
2024-01-16T03:13:45.028Z,46.23
2024-01-16T03:16:12.832Z,46.34
2024-01-16T03:18:40.181Z,46.12
2024-01-16T03:21:08.732Z,46.29
2024-01-16T03:23:36.330Z,46.06
2024-01-16T03:26:05.080Z,46.02
2024-01-16T03:28:32.376Z,46.15
2024-01-16T03:30:59.626Z,45.99
2024-01-16T03:33:27.058Z,46.09
2024-01-16T03:35:54.466Z,45.99
2024-01-16T03:38:22.541Z,46.02
2024-01-16T03:40:50.072Z,46.03
2024-01-16T03:43:17.391Z,46.07
2024-01-16T03:45:45.243Z,45.97
2024-01-16T03:48:12.599Z,46.17
2024-01-16T03:50:45.227Z,46.10
2024-01-16T03:53:12.721Z,45.96
2024-01-16T03:55:40.371Z,45.61
2024-01-16T03:58:09.684Z,45.96
2024-01-16T04:00:38.106Z,45.91
2024-01-16T04:03:05.916Z,45.85
2024-01-16T04:05:33.453Z,45.98
2024-01-16T04:08:00.678Z,45.88
2024-01-16T04:10:27.882Z,45.87
2024-01-16T04:12:55.124Z,45.90
2024-01-16T04:15:23.784Z,46.14
2024-01-16T04:17:51.050Z,45.89
2024-01-16T04:20:18.577Z,45.94
2024-01-16T04:22:47.267Z,45.96
2024-01-16T04:25:14.563Z,45.87
2024-01-16T04:27:41.972Z,45.51
2024-01-16T04:30:10.297Z,45.71
2024-01-16T04:32:37.699Z,45.83
2024-01-16T04:35:05.776Z,45.70
2024-01-16T04:37:33.118Z,45.62
2024-01-16T04:40:01.042Z,45.62
2024-01-16T04:42:29.164Z,45.47
2024-01-16T04:44:56.789Z,45.68
2024-01-16T04:47:24.004Z,45.66
2024-01-16T04:49:51.410Z,45.66
2024-01-16T04:52:18.512Z,45.41
2024-01-16T04:54:46.977Z,45.76
2024-01-16T04:57:14.086Z,45.42
2024-01-16T04:59:41.239Z,45.58
2024-01-16T05:02:09.048Z,45.14
2024-01-16T05:04:39.394Z,45.40
2024-01-16T05:07:06.688Z,45.40
2024-01-16T05:09:34.301Z,45.58
2024-01-16T05:12:02.334Z,45.62
2024-01-16T05:14:29.500Z,45.63
2024-01-16T05:16:57.221Z,45.39
2024-01-16T05:19:24.827Z,45.37
2024-01-16T05:21:51.982Z,45.50
2024-01-16T05:24:19.091Z,45.37
2024-01-16T05:26:46.321Z,45.47
2024-01-16T05:29:13.683Z,45.38
2024-01-16T05:31:44.669Z,45.23
2024-01-16T05:34:13.189Z,45.20
2024-01-16T05:36:40.515Z,45.20
2024-01-16T05:39:09.307Z,45.25
2024-01-16T05:41:37.035Z,45.11
2024-01-16T05:44:04.840Z,45.25
2024-01-16T05:46:35.417Z,45.38
2024-01-16T05:49:02.758Z,45.10
2024-01-16T05:51:30.724Z,45.41
2024-01-16T05:53:58.696Z,45.19
2024-01-16T05:56:25.921Z,45.04
2024-01-16T05:58:54.438Z,45.17
2024-01-16T06:01:21.928Z,45.11
2024-01-16T06:03:51.279Z,45.17
2024-01-16T06:06:18.601Z,45.07
2024-01-16T06:08:46.218Z,45.12
2024-01-16T06:11:15.304Z,45.19
2024-01-16T06:13:42.961Z,45.15
2024-01-16T06:16:11.056Z,45.38
2024-01-16T06:18:39.291Z,45.20
2024-01-16T06:21:06.675Z,45.21
2024-01-16T06:23:34.022Z,45.30
2024-01-16T06:26:02.164Z,45.51
2024-01-16T06:28:29.318Z,45.43
2024-01-16T06:30:57.005Z,45.65
2024-01-16T06:33:24.330Z,45.44
2024-01-16T06:35:54.208Z,45.60
2024-01-16T06:38:22.027Z,45.59
2024-01-16T06:40:49.878Z,45.40
2024-01-16T06:43:17.339Z,45.29
2024-01-16T06:45:45.471Z,45.56
2024-01-16T06:48:12.974Z,45.46
2024-01-16T06:50:41.128Z,45.83
2024-01-16T06:53:08.416Z,45.64
2024-01-16T06:55:37.183Z,45.88
2024-01-16T06:58:04.550Z,45.82
2024-01-16T07:00:31.611Z,45.47
2024-01-16T07:02:59.302Z,45.49
2024-01-16T07:05:26.891Z,45.74
2024-01-16T07:07:54.037Z,46.05
2024-01-16T07:10:23.669Z,45.46
2024-01-16T07:12:52.701Z,45.50
2024-01-16T07:15:20.734Z,45.97
2024-01-16T07:17:48.078Z,45.97
2024-01-16T07:20:16.067Z,45.80
2024-01-16T07:22:43.653Z,45.70
2024-01-16T07:25:10.975Z,45.95
2024-01-16T07:27:38.546Z,45.87
2024-01-16T07:30:08.156Z,46.00
2024-01-16T07:32:36.526Z,45.92
2024-01-16T07:35:04.672Z,46.16
2024-01-16T07:37:32.157Z,45.92
2024-01-16T07:39:59.643Z,45.94
2024-01-16T07:42:27.289Z,45.98
2024-01-16T07:44:56.182Z,45.57
2024-01-16T07:47:23.879Z,46.08
2024-01-16T07:49:51.056Z,46.02
2024-01-16T07:52:18.508Z,45.76
2024-01-16T07:54:45.620Z,45.98
2024-01-16T07:57:13.336Z,46.24
2024-01-16T07:59:44.628Z,45.90
2024-01-16T08:02:12.258Z,46.33
2024-01-16T08:04:39.440Z,46.12
2024-01-16T08:07:06.672Z,45.98
2024-01-16T08:09:34.241Z,46.21
2024-01-16T08:12:04.114Z,46.07
2024-01-16T08:14:31.342Z,46.30
2024-01-16T08:16:58.951Z,45.90
2024-01-16T08:19:26.186Z,46.02
2024-01-16T08:21:53.776Z,46.17
2024-01-16T08:24:21.334Z,46.34
2024-01-16T08:26:49.031Z,46.28
2024-01-16T08:29:16.879Z,45.97
2024-01-16T08:31:44.459Z,46.11
2024-01-16T08:34:11.734Z,46.27
2024-01-16T08:36:38.992Z,46.28
2024-01-16T08:39:06.948Z,46.24
2024-01-16T08:41:34.273Z,46.21
2024-01-16T08:44:01.653Z,46.25
2024-01-16T08:46:29.356Z,46.09
2024-01-16T08:48:56.623Z,46.20
2024-01-16T08:51:24.425Z,46.34
2024-01-16T08:53:51.604Z,46.37
2024-01-16T08:56:19.258Z,46.27
2024-01-16T08:58:47.627Z,46.23
2024-01-16T09:01:14.914Z,46.11
2024-01-16T09:03:44.566Z,46.24
2024-01-16T09:06:12.194Z,46.06
2024-01-16T09:08:39.663Z,46.10
2024-01-16T09:11:06.935Z,45.91
2024-01-16T09:13:35.022Z,46.09
2024-01-16T09:16:02.296Z,45.87
2024-01-16T09:18:29.952Z,46.07
2024-01-16T09:20:58.117Z,45.83
2024-01-16T09:23:25.602Z,45.91
2024-01-16T09:25:53.191Z,45.91
2024-01-16T09:28:20.320Z,45.75
2024-01-16T09:30:47.781Z,45.69
2024-01-16T09:33:17.105Z,45.49
2024-01-16T09:35:44.413Z,45.61
2024-01-16T09:38:11.718Z,45.63
2024-01-16T09:40:39.189Z,45.58
2024-01-16T09:43:09.691Z,45.42
2024-01-16T09:45:39.864Z,45.48
2024-01-16T09:48:09.592Z,45.65
2024-01-16T09:50:37.233Z,45.66
2024-01-16T09:53:04.702Z,45.73
2024-01-16T09:55:31.982Z,45.37
2024-01-16T09:57:59.684Z,45.46
2024-01-16T10:00:28.372Z,45.71
2024-01-16T10:02:59.948Z,45.71
2024-01-16T10:05:27.447Z,45.57
2024-01-16T10:07:55.572Z,45.62
2024-01-16T10:10:30.557Z,45.58
2024-01-16T10:13:06.174Z,45.20
2024-01-16T10:15:33.644Z,45.31
2024-01-16T10:18:01.960Z,45.74
2024-01-16T10:20:37.702Z,45.47
2024-01-16T10:23:05.060Z,45.65
2024-01-16T10:25:32.834Z,45.53
2024-01-16T10:28:09.642Z,45.06
2024-01-16T10:30:37.542Z,45.35
2024-01-16T10:33:16.042Z,45.07
2024-01-16T10:35:43.758Z,45.37
2024-01-16T10:38:21.060Z,44.98
2024-01-16T10:40:48.201Z,45.03
2024-01-16T10:43:19.822Z,45.01
2024-01-16T10:45:48.190Z,45.31
2024-01-16T10:48:17.312Z,44.78
2024-01-16T10:50:47.835Z,45.35
2024-01-16T10:53:17.822Z,44.89
2024-01-16T10:55:53.525Z,44.93
2024-01-16T10:58:24.850Z,45.27
2024-01-16T11:00:55.126Z,44.92
2024-01-16T11:03:50.760Z,44.97
2024-01-16T11:06:20.200Z,45.21
2024-01-16T11:08:51.037Z,44.70
2024-01-16T11:11:19.188Z,44.54
2024-01-16T11:13:48.321Z,44.94
2024-01-16T11:16:17.472Z,44.89
2024-01-16T11:18:46.090Z,44.65
2024-01-16T11:21:19.318Z,44.08
2024-01-16T11:23:49.212Z,44.23
2024-01-16T11:26:34.600Z,44.04
2024-01-16T11:29:29.227Z,44.05
2024-01-16T11:32:13.527Z,44.32
2024-01-16T11:34:50.493Z,44.26
2024-01-16T11:37:34.434Z,44.07
2024-01-16T11:40:23.123Z,43.95
2024-01-16T11:42:56.155Z,44.05
2024-01-16T11:45:30.594Z,43.84
2024-01-16T11:48:14.849Z,43.29
2024-01-16T11:50:43.390Z,43.44
2024-01-16T11:53:11.072Z,43.55
2024-01-16T11:56:34.406Z,43.17
2024-01-16T12:00:00.849Z,43.46
2024-01-16T12:02:38.607Z,43.20
2024-01-16T12:05:08.498Z,43.18
2024-01-16T12:07:56.347Z,42.75
2024-01-16T12:10:25.738Z,42.84
2024-01-16T12:13:02.998Z,42.51
2024-01-16T12:15:33.152Z,42.48
2024-01-16T12:18:02.822Z,42.14
2024-01-16T12:20:33.023Z,42.32
2024-01-16T12:23:06.720Z,41.63
2024-01-16T12:26:01.140Z,41.91
2024-01-16T12:28:32.386Z,42.02
2024-01-16T12:31:02.368Z,41.76
2024-01-16T12:33:30.546Z,41.99
2024-01-16T12:36:06.617Z,41.47
2024-01-16T12:38:36.710Z,41.42
2024-01-16T12:41:10.645Z,41.36
2024-01-16T12:43:38.516Z,41.18
2024-01-16T12:46:07.774Z,41.04
2024-01-16T12:48:35.474Z,41.19
2024-01-16T12:51:05.274Z,41.22
2024-01-16T12:53:34.670Z,40.93
2024-01-16T12:56:06.257Z,41.00
2024-01-16T12:58:38.041Z,41.05
2024-01-16T13:01:38.566Z,40.77
2024-01-16T13:04:08.894Z,41.31
2024-01-16T13:06:37.297Z,40.95
2024-01-16T13:09:17.556Z,41.06
2024-01-16T13:11:57.498Z,40.97
2024-01-16T13:14:26.741Z,41.02
2024-01-16T13:16:58.285Z,40.54
2024-01-16T13:19:27.296Z,40.92
2024-01-16T13:21:55.216Z,40.94
2024-01-16T13:24:25.052Z,40.73
2024-01-16T13:26:53.707Z,40.54
2024-01-16T13:29:21.240Z,40.40
2024-01-16T13:31:49.365Z,40.24
2024-01-16T13:34:19.437Z,40.04
2024-01-16T13:37:06.780Z,40.26
2024-01-16T13:40:00.485Z,40.14
2024-01-16T13:42:27.940Z,40.21
2024-01-16T13:44:55.620Z,39.98
2024-01-16T13:47:23.461Z,40.24
2024-01-16T13:49:51.179Z,39.99
2024-01-16T13:52:19.014Z,39.94
2024-01-16T13:54:46.985Z,39.57
2024-01-16T13:57:14.395Z,39.76
2024-01-16T13:59:42.108Z,39.38
2024-01-16T14:02:10.169Z,39.51
2024-01-16T14:04:37.750Z,39.64
2024-01-16T14:09:37.380Z,39.79
2024-01-16T14:12:05.538Z,39.70
2024-01-16T14:14:33.100Z,39.55
2024-01-16T14:17:01.885Z,39.54
2024-01-16T14:19:32.316Z,39.51
2024-01-16T14:22:02.268Z,39.24
2024-01-16T14:24:29.457Z,38.92
2024-01-16T14:27:00.202Z,39.41
2024-01-16T14:29:28.347Z,39.04
2024-01-16T14:31:58.068Z,39.28
2024-01-16T14:34:28.111Z,39.45
2024-01-16T14:36:56.212Z,39.17
2024-01-16T14:39:27.360Z,38.72
2024-01-16T14:41:55.617Z,39.24
2024-01-16T14:44:23.505Z,39.13
2024-01-16T14:46:53.240Z,38.75
2024-01-16T14:49:22.826Z,39.18
2024-01-16T14:51:52.136Z,39.10
2024-01-16T14:54:20.065Z,38.48
2024-01-16T14:56:48.140Z,39.02
2024-01-16T14:59:16.521Z,38.51
2024-01-16T15:01:46.259Z,38.72
2024-01-16T15:04:14.041Z,38.79
2024-01-16T15:06:42.238Z,39.06
2024-01-16T15:09:14.303Z,38.61
2024-01-16T15:11:47.777Z,38.93
2024-01-16T15:14:18.493Z,38.90
2024-01-16T15:16:46.347Z,38.61
2024-01-16T15:19:13.638Z,39.07
2024-01-16T15:21:41.271Z,39.22
2024-01-16T15:24:08.605Z,38.81
2024-01-16T15:26:37.519Z,38.78
2024-01-16T15:29:06.520Z,38.80
2024-01-16T15:31:33.752Z,38.25
2024-01-16T15:34:01.331Z,38.73
2024-01-16T15:36:28.720Z,38.42
2024-01-16T15:38:56.428Z,38.72
2024-01-16T15:41:23.977Z,38.56
2024-01-16T15:43:51.205Z,38.66
2024-01-16T15:46:18.355Z,38.27
2024-01-16T15:48:46.057Z,38.43
2024-01-16T15:51:13.625Z,38.45
2024-01-16T15:53:40.946Z,38.51
2024-01-16T15:56:08.957Z,38.46
2024-01-16T15:58:36.659Z,38.38
2024-01-16T16:01:04.265Z,38.63
2024-01-16T16:03:31.945Z,38.67
2024-01-16T16:05:59.529Z,38.64
2024-01-16T16:08:27.880Z,38.06
2024-01-16T16:10:55.414Z,38.05
2024-01-16T16:13:23.137Z,38.65
2024-01-16T16:15:50.599Z,38.65
2024-01-16T16:18:17.910Z,38.45
2024-01-16T16:20:46.175Z,38.05
2024-01-16T16:23:13.259Z,38.21
2024-01-16T16:25:47.406Z,38.00
2024-01-16T16:28:15.234Z,38.60
2024-01-16T16:30:44.007Z,38.48
2024-01-16T16:33:12.709Z,38.19
2024-01-16T16:35:40.181Z,38.60
2024-01-16T16:38:07.599Z,38.52
2024-01-16T16:40:34.882Z,38.36
2024-01-16T16:43:02.428Z,38.80
2024-01-16T16:45:30.067Z,38.82
2024-01-16T16:47:58.664Z,38.90
2024-01-16T16:50:25.916Z,38.98
2024-01-16T16:52:53.474Z,38.48
2024-01-16T16:55:21.057Z,38.74
2024-01-16T16:57:48.678Z,38.76
2024-01-16T17:00:16.183Z,38.74
2024-01-16T17:02:43.707Z,39.18
2024-01-16T17:05:11.138Z,39.14
2024-01-16T17:07:38.864Z,39.04
2024-01-16T17:10:08.240Z,39.02
2024-01-16T17:12:35.457Z,38.93
2024-01-16T17:15:02.946Z,39.33
2024-01-16T17:17:33.553Z,38.86
2024-01-16T17:20:00.706Z,38.90
2024-01-16T17:22:28.442Z,39.13
2024-01-16T17:24:55.898Z,39.21
2024-01-16T17:27:24.161Z,39.19
2024-01-16T17:29:51.844Z,39.41
2024-01-16T17:32:19.498Z,39.10
2024-01-16T17:34:47.975Z,39.29
2024-01-16T17:37:16.892Z,39.65
2024-01-16T17:39:47.420Z,39.38
2024-01-16T17:42:15.093Z,39.62
2024-01-16T17:44:49.759Z,39.50
2024-01-16T17:47:18.460Z,39.56
2024-01-16T17:49:46.293Z,39.52
2024-01-16T17:52:14.898Z,39.58
2024-01-16T17:54:42.880Z,39.64
2024-01-16T17:57:12.022Z,39.55
2024-01-16T17:59:42.812Z,39.70
2024-01-16T18:02:10.594Z,39.74
2024-01-16T18:04:39.484Z,39.80
2024-01-16T18:07:07.221Z,39.83
2024-01-16T18:09:35.505Z,40.01
2024-01-16T18:12:02.796Z,40.07
2024-01-16T18:14:30.142Z,40.16
2024-01-16T18:16:57.862Z,40.18
2024-01-16T18:19:28.437Z,40.04
2024-01-16T18:21:59.330Z,40.33
2024-01-16T18:24:27.523Z,40.37
2024-01-16T18:26:56.354Z,40.44
2024-01-16T18:29:23.953Z,40.87
2024-01-16T18:31:51.724Z,40.70
2024-01-16T18:34:22.118Z,40.86
2024-01-16T18:36:50.933Z,40.77
2024-01-16T18:39:20.925Z,41.39
2024-01-16T18:41:52.603Z,40.89
2024-01-16T18:44:20.562Z,40.88
2024-01-16T18:46:48.041Z,40.80
2024-01-16T18:49:15.815Z,40.42
2024-01-16T18:51:43.098Z,40.58
2024-01-16T18:54:10.320Z,40.58
2024-01-16T18:56:39.602Z,40.56
2024-01-16T18:59:07.965Z,40.63
2024-01-16T19:01:36.123Z,40.39
2024-01-16T19:04:05.863Z,40.36
2024-01-16T19:06:33.191Z,40.55
2024-01-16T19:09:00.862Z,40.20
2024-01-16T19:11:28.342Z,40.51
2024-01-16T19:13:56.484Z,40.18
2024-01-16T19:16:24.553Z,40.22
2024-01-16T19:18:51.876Z,40.22
2024-01-16T19:21:19.695Z,40.41
2024-01-16T19:23:48.244Z,40.04
2024-01-16T19:26:16.398Z,40.61
2024-01-16T19:28:44.029Z,40.49
2024-01-16T19:31:11.699Z,40.62
2024-01-16T19:33:40.523Z,40.31
2024-01-16T19:36:08.424Z,40.49
2024-01-16T19:38:36.897Z,40.62
2024-01-16T19:41:04.834Z,40.60
2024-01-16T19:43:32.811Z,40.78
2024-01-16T19:46:01.502Z,40.52
2024-01-16T19:48:29.384Z,40.72
2024-01-16T19:50:57.146Z,40.64
2024-01-16T19:53:25.955Z,40.80
2024-01-16T19:55:56.505Z,40.91
2024-01-16T19:58:23.910Z,40.93
2024-01-16T20:00:51.539Z,40.87
2024-01-16T20:03:18.858Z,40.69
2024-01-16T20:05:47.130Z,40.86
2024-01-16T20:08:15.162Z,40.54
2024-01-16T20:10:42.639Z,40.97
2024-01-16T20:13:09.907Z,40.80
2024-01-16T20:15:37.427Z,40.98
2024-01-16T20:18:06.731Z,41.08
2024-01-16T20:20:35.619Z,40.90
2024-01-16T20:23:04.241Z,41.01
2024-01-16T20:25:32.379Z,40.73
2024-01-16T20:28:00.842Z,40.80
2024-01-16T20:30:28.285Z,41.11
2024-01-16T20:32:56.606Z,41.23
2024-01-16T20:35:24.982Z,41.14
2024-01-16T20:37:52.513Z,41.23
2024-01-16T20:40:20.231Z,40.96
2024-01-16T20:42:47.799Z,41.11
2024-01-16T20:45:15.060Z,41.23
2024-01-16T20:47:42.424Z,41.20
2024-01-16T20:50:11.140Z,41.25
2024-01-16T20:52:39.153Z,41.02
2024-01-16T20:55:08.556Z,41.00
2024-01-16T20:57:36.777Z,41.29
2024-01-16T21:00:14.688Z,41.24
2024-01-16T21:02:43.209Z,41.23
2024-01-16T21:05:11.733Z,41.27
2024-01-16T21:07:40.009Z,41.17
2024-01-16T21:10:08.171Z,41.31
2024-01-16T21:12:35.411Z,40.99
2024-01-16T21:15:02.766Z,41.21
2024-01-16T21:17:30.952Z,40.93
2024-01-16T21:19:58.333Z,41.36
2024-01-16T21:22:33.332Z,41.67
2024-01-16T21:25:06.487Z,41.23
2024-01-16T21:27:34.486Z,41.45
2024-01-16T21:30:02.830Z,41.30
2024-01-16T21:32:30.703Z,41.59
2024-01-16T21:34:58.246Z,41.25
2024-01-16T21:37:26.187Z,41.45
2024-01-16T21:39:54.580Z,41.73
2024-01-16T21:42:22.016Z,41.74
2024-01-16T21:44:52.690Z,41.25
2024-01-16T21:47:22.387Z,41.53
2024-01-16T21:49:52.489Z,41.46
2024-01-16T21:52:22.333Z,41.90
2024-01-16T21:54:51.085Z,41.60
2024-01-16T21:57:19.044Z,42.00
2024-01-16T21:59:46.906Z,41.61
2024-01-16T22:02:15.619Z,41.55
2024-01-16T22:04:43.177Z,41.82
2024-01-16T22:07:10.359Z,41.99
2024-01-16T22:09:38.654Z,41.82
2024-01-16T22:12:09.985Z,41.65
2024-01-16T22:14:39.233Z,42.16
2024-01-16T22:17:07.406Z,41.79
2024-01-16T22:19:35.007Z,41.55
2024-01-16T22:22:02.620Z,42.07
2024-01-16T22:24:30.255Z,41.90
2024-01-16T22:26:57.814Z,41.63
2024-01-16T22:29:25.198Z,42.20
2024-01-16T22:31:52.724Z,41.79
2024-01-16T22:34:20.060Z,41.75
2024-01-16T22:36:47.617Z,41.92
2024-01-16T22:39:17.389Z,41.83
2024-01-16T22:41:48.842Z,41.93
2024-01-16T22:44:16.717Z,41.97
2024-01-16T22:46:44.716Z,41.64
2024-01-16T22:49:12.720Z,42.36
2024-01-16T22:51:40.382Z,41.96
2024-01-16T22:54:08.374Z,42.31
2024-01-16T22:56:36.033Z,42.49
2024-01-16T22:59:04.710Z,42.12
2024-01-16T23:01:32.439Z,42.45
2024-01-16T23:04:00.525Z,42.39
2024-01-16T23:06:29.396Z,41.98
2024-01-16T23:09:00.644Z,41.79
2024-01-16T23:11:28.467Z,42.47
2024-01-16T23:13:55.852Z,41.73
2024-01-16T23:16:23.490Z,41.94
2024-01-16T23:18:51.205Z,41.96
2024-01-16T23:21:19.816Z,42.07
2024-01-16T23:23:49.342Z,41.92
2024-01-16T23:26:16.896Z,42.12
2024-01-16T23:28:44.236Z,42.08
2024-01-16T23:31:13.393Z,42.15
2024-01-16T23:33:41.945Z,42.28
2024-01-16T23:36:11.072Z,42.04
2024-01-16T23:38:40.497Z,42.62
2024-01-16T23:41:11.125Z,42.31
2024-01-16T23:43:39.067Z,42.61
2024-01-16T23:46:09.099Z,42.75
2024-01-16T23:48:37.085Z,42.51
2024-01-16T23:51:05.203Z,42.49
2024-01-16T23:53:33.189Z,42.21
2024-01-16T23:56:01.611Z,42.71
2024-01-16T23:58:28.914Z,42.26
